Time;durP1;ratioP1;P1;durP2;ratioP2;P2;SDS_P1;SDS_P2;PMS_P1;PMS_P2;Temp;Humidity;BMP_temperature;BMP_pressure;BME280_temperature;BME280_humidity;BME280_pressure;Samples;Min_cycle;Max_cycle;Signal;HPM_P1;HPM_P2
2023/07/22 00:00:51;;;;;;;9.82;8.30;;;;;;;15.63;95.05;101390.94;5172739;27;20019;-37
2023/07/22 00:03:17;;;;;;;;;;;;;;;15.73;94.27;101400.34;5173651;27;20418;-36
2023/07/22 00:05:42;;;;;;;10.10;8.70;;;;;;;15.59;95.04;101391.66;5172328;27;19910;-36
2023/07/22 00:08:07;;;;;;;9.85;7.88;;;;;;;15.54;95.45;101384.22;5172626;27;20272;-37
2023/07/22 00:10:33;;;;;;;;;;;;;;;15.69;94.52;101400.00;5164681;27;20029;-37
2023/07/22 00:12:58;;;;;;;9.63;8.30;;;;;;;15.65;95.23;101398.84;5158597;27;19961;-36
2023/07/22 00:15:25;;;;;;;;;;;;;;;15.68;94.50;101396.44;5158416;27;20739;-36
2023/07/22 00:17:51;;;;;;;9.90;8.18;;;;;;;15.59;95.91;101395.19;5157788;27;20373;-36
2023/07/22 00:20:17;;;;;;;9.48;8.30;;;;;;;15.56;96.00;101397.59;5157775;27;20022;-36
2023/07/22 00:22:42;;;;;;;10.73;9.13;;;;;;;15.51;96.36;101390.16;5158394;27;20039;-36
2023/07/22 00:25:12;;;;;;;;;;;;;;;15.66;95.34;101390.44;5158421;27;20339;-36
2023/07/22 00:27:38;;;;;;;10.63;8.80;;;;;;;15.57;97.26;101383.72;5157971;27;19903;-36
2023/07/22 00:30:06;;;;;;;10.50;8.68;;;;;;;15.62;97.15;101400.16;5158161;27;20067;-36
2023/07/22 00:32:31;;;;;;;10.30;8.80;;;;;;;15.57;98.63;101397.38;5158173;27;20053;-36
2023/07/22 00:34:57;;;;;;;;;;;;;;;15.66;96.96;101401.34;5157938;27;20454;-37
2023/07/22 00:37:22;;;;;;;9.90;8.90;;;;;;;15.42;100.00;101391.66;5158076;27;19921;-36
2023/07/22 00:39:47;;;;;;;12.52;10.50;;;;;;;15.36;100.00;101400.84;5157973;27;20066;-36
2023/07/22 00:42:13;;;;;;;;;;;;;;;15.46;100.00;101401.81;5158479;27;20026;-36
2023/07/22 00:44:38;;;;;;;12.38;9.75;;;;;;;15.16;100.00;101399.44;5157323;27;20355;-36
2023/07/22 00:47:04;;;;;;;;;;;;;;;15.30;100.00;101390.94;5158176;27;20046;-37
2023/07/22 00:49:30;;;;;;;12.93;10.43;;;;;;;15.04;100.00;101392.44;5158074;27;19937;-36
2023/07/22 00:51:58;;;;;;;;;;;;;;;15.23;100.00;101390.31;5158586;27;20077;-36
2023/07/22 00:54:24;;;;;;;13.15;9.55;;;;;;;15.09;100.00;101377.00;5157213;27;19903;-36
2023/07/22 00:56:49;;;;;;;;;;;;;;;15.18;100.00;101372.81;5158790;27;20348;-36
2023/07/22 00:59:16;;;;;;;10.60;9.48;;;;;;;15.09;100.00;101378.91;5157499;27;19915;-36
2023/07/22 01:01:41;;;;;;;11.10;9.95;;;;;;;14.98;100.00;101372.44;5157646;27;20169;-36
2023/07/22 01:04:07;;;;;;;;;;;;;;;15.16;100.00;101379.56;5157764;27;20103;-36
2023/07/22 01:06:34;;;;;;;12.68;10.02;;;;;;;15.03;100.00;101379.88;5158098;27;20357;-36
2023/07/22 01:08:59;;;;;;;11.35;9.38;;;;;;;15.04;100.00;101376.09;5156854;27;20030;-36
2023/07/22 01:11:25;;;;;;;;;;;;;;;15.15;100.00;101377.91;5157987;27;20019;-36
2023/07/22 01:13:51;;;;;;;11.18;9.68;;;;;;;15.00;100.00;101367.59;5157145;27;19903;-36
2023/07/22 01:16:17;;;;;;;;;;;;;;;15.15;100.00;101376.00;5158028;27;20106;-36
2023/07/22 01:18:42;;;;;;;11.23;9.65;;;;;;;15.00;100.00;101375.78;5157518;27;20429;-37
2023/07/22 01:21:08;;;;;;;;;;;;;;;15.11;100.00;101365.84;5156762;27;20029;-37
2023/07/22 01:23:35;;;;;;;10.95;9.65;;;;;;;15.01;100.00;101371.16;5157052;27;19903;-37
2023/07/22 01:26:02;;;;;;;11.45;10.18;;;;;;;14.92;100.00;101357.09;5157709;27;20075;-36
2023/07/22 01:28:27;;;;;;;11.07;9.93;;;;;;;14.92;100.00;101351.66;5156572;27;20446;-36
2023/07/22 01:30:52;;;;;;;;;;;;;;;15.09;100.00;101363.41;5157017;27;20072;-36
2023/07/22 01:33:19;;;;;;;12.55;10.15;;;;;;;15.00;100.00;101359.44;5157011;27;19903;-36
2023/07/22 01:35:45;;;;;;;;;;;;;;;15.09;100.00;101366.13;5156804;27;20074;-37
2023/07/22 01:38:10;;;;;;;11.98;10.30;;;;;;;14.86;100.00;101366.28;5156872;27;19994;-36
2023/07/22 01:40:35;;;;;;;;;;;;;;;15.02;100.00;101360.00;5157047;27;20402;-36
2023/07/22 01:43:00;;;;;;;10.57;9.47;;;;;;;14.93;100.00;101354.16;5156828;27;19903;-37
2023/07/22 01:45:26;;;;;;;14.33;10.87;;;;;;;14.87;100.00;101360.56;5156772;27;20268;-36
2023/07/22 01:47:51;;;;;;;11.32;10.13;;;;;;;14.81;100.00;101361.56;5156429;27;20289;-36
2023/07/22 01:50:18;;;;;;;;;;;;;;;14.94;100.00;101354.97;5156742;27;20023;-36
2023/07/22 01:52:44;;;;;;;10.73;9.63;;;;;;;14.84;100.00;101360.25;5156650;27;19948;-36
2023/07/22 01:55:10;;;;;;;;;;;;;;;14.89;100.00;101357.63;5156728;27;20027;-37
2023/07/22 01:57:36;;;;;;;15.88;8.55;;;;;;;14.82;100.00;101362.38;5157079;27;19969;-36
2023/07/22 02:00:01;;;;;;;;;;;;;;;14.88;100.00;101351.34;5157704;27;20074;-36
2023/07/22 02:02:26;;;;;;;10.43;9.15;;;;;;;14.74;100.00;101350.03;5156105;27;19907;-36
2023/07/22 02:04:52;;;;;;;;;;;;;;;14.88;100.00;101345.06;5156187;27;20027;-36
2023/07/22 02:07:18;;;;;;;10.53;9.03;;;;;;;14.73;100.00;101352.97;5156379;27;19907;-36
2023/07/22 02:09:44;;;;;;;;;;;;;;;14.86;100.00;101347.22;5156419;27;20375;-36
2023/07/22 02:12:10;;;;;;;10.82;9.35;;;;;;;14.63;100.00;101349.00;5155960;27;19968;-36
2023/07/22 02:14:36;;;;;;;10.93;8.95;;;;;;;14.51;100.00;101348.25;5155900;27;20392;-36
2023/07/22 02:17:02;;;;;;;12.55;9.43;;;;;;;14.53;100.00;101339.84;5155892;27;20056;-36
2023/07/22 02:19:27;;;;;;;;;;;;;;;14.67;100.00;101347.44;5156221;27;20026;-36
2023/07/22 02:21:52;;;;;;;10.30;9.15;;;;;;;14.62;100.00;101341.91;5156657;27;19907;-36
2023/07/22 02:24:18;;;;;;;;;;;;;;;14.73;100.00;101348.34;5155942;27;20041;-36
2023/07/22 02:26:43;;;;;;;13.10;9.60;;;;;;;14.67;100.00;101338.47;5155759;27;20044;-36
2023/07/22 02:29:08;;;;;;;10.75;9.65;;;;;;;14.60;100.00;101337.81;5155423;27;20260;-36
2023/07/22 02:31:33;;;;;;;;;;;;;;;14.74;100.00;101332.84;5156689;27;20023;-36
2023/07/22 02:33:59;;;;;;;9.50;8.60;;;;;;;14.67;100.00;101341.19;5155889;27;19922;-36
2023/07/22 02:36:24;;;;;;;;;;;;;;;14.74;100.00;101338.28;5155992;27;20400;-36
2023/07/22 02:38:50;;;;;;;10.10;8.85;;;;;;;14.59;100.00;101326.09;5155690;27;19907;-36
2023/07/22 02:41:15;;;;;;;;;;;;;;;14.70;100.00;101337.16;5156499;27;20457;-36
2023/07/22 02:43:41;;;;;;;12.38;9.10;;;;;;;14.50;100.00;101330.28;5155701;27;20314;-36
2023/07/22 02:46:07;;;;;;;11.75;9.60;;;;;;;14.46;100.00;101330.97;5156036;27;20019;-36
2023/07/22 02:48:33;;;;;;;10.40;8.60;;;;;;;14.43;100.00;101332.28;5155613;27;20033;-36
2023/07/22 02:51:04;;;;;;;;;;;;;;;14.56;100.00;101331.19;5156136;27;20034;-37
2023/07/22 02:53:30;;;;;;;10.73;9.02;;;;;;;14.32;100.00;101314.97;5155333;27;19990;-37
2023/07/22 02:55:55;;;;;;;;;;;;;;;14.49;100.00;101333.22;5156563;27;20069;-37
2023/07/22 02:58:21;;;;;;;10.48;9.07;;;;;;;14.32;100.00;101333.19;5155041;27;20022;-37
2023/07/22 03:00:46;;;;;;;;;;;;;;;14.46;100.00;101336.44;5156093;27;20019;-36
2023/07/22 03:03:12;;;;;;;9.50;8.43;;;;;;;14.38;100.00;101330.28;5156042;27;19907;-36
2023/07/22 03:05:37;;;;;;;10.63;9.13;;;;;;;14.24;100.00;101339.00;5155571;27;20015;-36
2023/07/22 03:08:02;;;;;;;;;;;;;;;14.36;100.00;101345.22;5155666;27;20014;-36
2023/07/22 03:10:29;;;;;;;9.98;8.88;;;;;;;14.24;100.00;101339.81;5155170;27;19903;-37
2023/07/22 03:12:55;;;;;;;13.68;9.73;;;;;;;14.09;100.00;101342.25;5155734;27;20023;-36
2023/07/22 03:15:25;;;;;;;10.35;9.25;;;;;;;14.08;100.00;101341.44;5155200;27;20446;-36
2023/07/22 03:17:51;;;;;;;15.80;9.65;;;;;;;14.01;100.00;101350.81;5155930;27;20357;-36
2023/07/22 03:20:18;;;;;;;;;;;;;;;14.18;100.00;101355.22;5155620;27;20034;-36
2023/07/22 03:22:43;;;;;;;11.60;10.05;;;;;;;13.97;100.00;101347.75;5155097;27;19994;-36
2023/07/22 03:25:10;;;;;;;;;;;;;;;14.13;100.00;101349.69;5156093;27;20046;-36
2023/07/22 03:27:36;;;;;;;11.30;10.10;;;;;;;13.89;100.00;101353.56;5155294;27;19997;-36
2023/07/22 03:30:14;;;;;;;11.02;9.93;;;;;;;13.94;100.00;101356.38;5155802;27;20027;-36
2023/07/22 03:32:42;;;;;;;9.43;8.43;;;;;;;14.06;100.00;101359.06;5155560;27;20029;-36
2023/07/22 03:35:09;;;;;;;11.88;10.25;;;;;;;13.93;100.00;101353.91;5154638;27;20023;-36
2023/07/22 03:37:36;;;;;;;11.07;9.70;;;;;;;13.96;100.00;101358.84;5155232;27;20019;-36
2023/07/22 03:40:01;;;;;;;12.00;9.90;;;;;;;13.96;100.00;101356.13;5154803;27;20045;-36
2023/07/22 03:42:27;;;;;;;;;;;;;;;14.03;100.00;101360.38;5155935;27;20023;-36
2023/07/22 03:44:52;;;;;;;11.30;9.35;;;;;;;13.94;100.00;101355.56;5155551;27;19907;-36
2023/07/22 03:47:18;;;;;;;11.32;10.13;;;;;;;13.88;100.00;101354.63;5158839;27;20029;-36
2023/07/22 03:49:44;;;;;;;11.35;10.13;;;;;;;13.88;100.00;101357.34;5158436;27;20047;-36
2023/07/22 03:52:09;;;;;;;;;;;;;;;13.96;100.00;101365.13;5159264;27;20014;-36
2023/07/22 03:54:35;;;;;;;13.57;9.97;;;;;;;13.74;100.00;101350.53;5158412;27;19956;-36
2023/07/22 03:57:00;;;;;;;12.77;10.23;;;;;;;13.73;100.00;101354.31;5158645;27;20282;-36
2023/07/22 03:59:25;;;;;;;11.80;9.95;;;;;;;13.83;100.00;101355.34;5158928;27;20047;-36
2023/07/22 04:01:50;;;;;;;;;;;;;;;13.92;100.00;101366.69;5159081;27;20027;-36
2023/07/22 04:04:16;;;;;;;13.43;9.82;;;;;;;13.70;100.00;101346.63;5158480;27;20358;-36
2023/07/22 04:06:41;;;;;;;;;;;;;;;13.87;100.00;101358.41;5159255;27;20177;-36
2023/07/22 04:09:07;;;;;;;14.50;9.67;;;;;;;13.63;100.00;101342.16;5158927;27;19903;-36
2023/07/22 04:11:32;;;;;;;11.95;10.75;;;;;;;13.70;100.00;101360.22;5158950;27;20256;-36
2023/07/22 04:13:57;;;;;;;11.32;9.23;;;;;;;13.79;100.00;101350.63;5158312;27;20349;-36
2023/07/22 04:16:23;;;;;;;12.05;9.73;;;;;;;13.78;100.00;101352.53;5158579;27;20071;-36
2023/07/22 04:18:48;;;;;;;11.07;9.30;;;;;;;13.69;100.00;101347.69;5158204;27;20023;-36
2023/07/22 04:21:14;;;;;;;12.00;9.85;;;;;;;13.52;100.00;101331.31;5159042;27;20022;-36
2023/07/22 04:23:39;;;;;;;11.85;10.50;;;;;;;13.63;100.00;101361.16;5158146;27;20015;-36
2023/07/22 04:26:10;;;;;;;;;;;;;;;13.79;100.00;101369.66;5158546;27;20068;-36
2023/07/22 04:28:35;;;;;;;17.95;10.57;;;;;;;13.63;100.00;101366.59;5158059;27;19903;-41
2023/07/22 04:31:00;;;;;;;;;;;;;;;13.77;100.00;101364.47;5158757;27;20019;-36
2023/07/22 04:33:27;;;;;;;11.80;9.30;;;;;;;13.73;100.00;101367.91;5157899;27;19903;-36
2023/07/22 04:35:56;;;;;;;13.57;8.98;;;;;;;13.66;100.00;101365.28;5158168;27;20331;-36
2023/07/22 04:38:21;;;;;;;16.25;9.60;;;;;;;13.71;100.00;101367.28;5157779;27;20050;-36
2023/07/22 04:40:46;;;;;;;;;;;;;;;13.81;100.00;101367.50;5158551;27;20439;-36
2023/07/22 04:43:12;;;;;;;11.70;9.35;;;;;;;13.69;100.00;101366.72;5157729;27;20282;-36
2023/07/22 04:45:40;;;;;;;10.27;8.35;;;;;;;13.88;100.00;101368.22;5157440;27;20109;-36
2023/07/22 04:48:06;;;;;;;13.48;9.52;;;;;;;13.85;100.00;101357.81;5158450;27;20498;-36
2023/07/22 04:50:31;;;;;;;;;;;;;;;14.03;100.00;101368.53;5158050;27;20098;-36
2023/07/22 04:52:56;;;;;;;11.47;9.83;;;;;;;13.99;100.00;101364.63;5157544;27;19953;-36
2023/07/22 04:55:22;;;;;;;12.63;9.53;;;;;;;13.98;100.00;101362.97;5157561;27;20270;-36
2023/07/22 04:57:48;;;;;;;9.68;8.55;;;;;;;14.07;100.00;101350.66;5157988;27;20268;-36
2023/07/22 05:00:14;;;;;;;;;;;;;;;14.21;100.00;101372.16;5157814;27;20021;-36
2023/07/22 05:02:40;;;;;;;13.27;10.25;;;;;;;14.05;100.00;101368.28;5157371;27;20331;-36
2023/07/22 05:05:06;;;;;;;;;;;;;;;14.18;100.00;101371.53;5158337;27;20050;-36
2023/07/22 05:07:32;;;;;;;11.35;9.02;;;;;;;14.15;100.00;101368.47;5157001;27;20065;-36
2023/07/22 05:09:57;;;;;;;13.10;10.43;;;;;;;14.15;100.00;101372.03;5156924;27;20059;-36
2023/07/22 05:12:22;;;;;;;;;;;;;;;14.24;100.00;101379.81;5158283;27;20107;-36
2023/07/22 05:14:49;;;;;;;12.17;9.77;;;;;;;14.10;100.00;101373.81;5157388;27;20346;-36
2023/07/22 05:17:14;;;;;;;11.30;10.10;;;;;;;14.04;100.00;101378.31;5157074;27;20014;-36
2023/07/22 05:19:40;;;;;;;;;;;;;;;14.23;100.00;101375.44;5157382;27;20083;-36
2023/07/22 05:22:05;;;;;;;11.35;10.02;;;;;;;14.17;100.00;101375.34;5157327;27;20403;-36
2023/07/22 05:24:30;;;;;;;15.13;10.75;;;;;;;14.19;100.00;101366.94;5157227;27;20435;-36
2023/07/22 05:26:56;;;;;;;11.52;10.05;;;;;;;14.18;100.00;101363.38;5156639;27;20450;-36
2023/07/22 05:29:21;;;;;;;;;;;;;;;14.37;100.00;101369.47;5157233;27;20031;-36
2023/07/22 05:31:46;;;;;;;13.30;10.67;;;;;;;14.26;100.00;101370.34;5157127;27;19960;-36
2023/07/22 05:34:12;;;;;;;13.87;10.53;;;;;;;14.28;100.00;101373.63;5156479;27;20260;-36
2023/07/22 05:36:38;;;;;;;11.40;9.80;;;;;;;14.28;100.00;101375.53;5156739;27;20292;-36
2023/07/22 05:39:03;;;;;;;;;;;;;;;14.47;100.00;101374.28;5156718;27;20022;-36
2023/07/22 05:41:28;;;;;;;11.73;9.73;;;;;;;14.45;100.00;101362.81;5157447;27;19914;-36
2023/07/22 05:43:54;;;;;;;;;;;;;;;14.66;100.00;101370.28;5157474;27;20018;-36
2023/07/22 05:46:19;;;;;;;11.37;9.77;;;;;;;14.68;100.00;101365.41;5156571;27;19914;-36
2023/07/22 05:48:45;;;;;;;13.93;10.70;;;;;;;14.81;100.00;101377.91;5156123;27;20262;-36
2023/07/22 05:51:10;;;;;;;;;;;;;;;14.90;100.00;101370.16;5156880;27;20047;-36
2023/07/22 05:53:35;;;;;;;12.93;9.73;;;;;;;14.78;100.00;101372.13;5156359;27;19911;-36
2023/07/22 05:56:00;;;;;;;;;;;;;;;14.97;100.00;101362.63;5156818;27;20505;-36
2023/07/22 05:58:26;;;;;;;11.43;10.27;;;;;;;15.03;100.00;101358.09;5155976;27;19911;-36
2023/07/22 06:00:53;;;;;;;13.35;9.90;;;;;;;15.10;100.00;101362.31;5156245;27;20263;-36
2023/07/22 06:03:19;;;;;;;13.52;10.50;;;;;;;15.32;100.00;101361.53;5156481;27;20435;-37
2023/07/22 06:05:44;;;;;;;;;;;;;;;15.49;100.00;101365.06;5157481;27;20022;-37
2023/07/22 06:08:09;;;;;;;12.80;9.63;;;;;;;15.53;100.00;101359.94;5156162;27;20281;-37
2023/07/22 06:10:37;;;;;;;12.80;9.82;;;;;;;15.50;100.00;101361.25;5156111;27;20407;-36
2023/07/22 06:13:03;;;;;;;16.50;10.98;;;;;;;15.63;100.00;101357.38;5155964;27;20026;-36
2023/07/22 06:15:28;;;;;;;;;;;;;;;15.81;100.00;101356.25;5156377;27;20021;-36
2023/07/22 06:17:54;;;;;;;13.23;10.63;;;;;;;15.65;100.00;101344.31;5156238;27;19903;-36
2023/07/22 06:20:19;;;;;;;13.07;10.65;;;;;;;15.87;100.00;101358.81;5155680;27;20284;-36
2023/07/22 06:22:44;;;;;;;;;;;;;;;16.02;100.00;101351.88;5156220;27;20490;-36
2023/07/22 06:25:10;;;;;;;11.77;9.97;;;;;;;16.01;100.00;101353.78;5155420;27;19906;-36
2023/07/22 06:27:37;;;;;;;;;;;;;;;16.16;100.00;101355.88;5155955;27;20377;-36
2023/07/22 06:30:03;;;;;;;;;;;;;;;16.19;100.00;101358.06;5156186;27;19911;-36
2023/07/22 06:32:29;;;;;;;15.10;10.15;;;;;;;16.06;100.00;101345.66;5155514;27;19915;-36
2023/07/22 06:34:58;;;;;;;16.92;10.55;;;;;;;16.02;100.00;101349.97;5155500;27;20018;-36
2023/07/22 06:37:24;;;;;;;14.23;10.43;;;;;;;16.08;100.00;101346.22;5155544;27;20033;-36
2023/07/22 06:39:50;;;;;;;13.57;10.02;;;;;;;16.05;100.00;101349.44;5155309;27;20015;-36
2023/07/22 06:42:15;;;;;;;13.13;10.70;;;;;;;15.98;100.00;101337.09;5155492;27;20023;-36
2023/07/22 06:44:41;;;;;;;;;;;;;;;16.10;100.00;101340.50;5156062;27;20101;-36
2023/07/22 06:47:06;;;;;;;12.50;9.63;;;;;;;16.04;100.00;101347.81;5155453;27;19902;-36
2023/07/22 06:49:32;;;;;;;;;;;;;;;16.17;100.00;101341.97;5156418;27;20720;-36
2023/07/22 06:51:57;;;;;;;14.27;10.48;;;;;;;16.17;100.00;101328.31;5155689;27;20345;-36
2023/07/22 06:54:23;;;;;;;;;;;;;;;16.45;100.00;101335.44;5156139;27;20023;-36
2023/07/22 06:56:48;;;;;;;14.87;10.40;;;;;;;16.62;100.00;101327.13;5155747;27;19903;-36
2023/07/22 06:59:13;;;;;;;;;;;;;;;16.82;100.00;101333.88;5156219;27;20315;-36
2023/07/22 07:01:39;;;;;;;14.30;10.17;;;;;;;16.86;100.00;101327.63;5155088;27;19906;-36
2023/07/22 07:04:04;;;;;;;;;;;;;;;17.00;100.00;101330.75;5156028;27;20264;-36
2023/07/22 07:06:29;;;;;;;14.60;9.93;;;;;;;16.97;100.00;101332.06;5155541;27;20398;-36
2023/07/22 07:08:55;;;;;;;;;;;;;;;17.10;100.00;101336.28;5155676;27;20088;-37
2023/07/22 07:11:20;;;;;;;13.10;10.52;;;;;;;16.90;100.00;101330.66;5155511;27;19913;-36
2023/07/22 07:13:45;;;;;;;;;;;;;;;17.04;100.00;101340.06;5155955;27;20023;-36
2023/07/22 07:16:23;;;;;;;15.27;9.47;;;;;;;16.93;100.00;101338.31;5156057;27;20350;-36
2023/07/22 07:18:48;;;;;;;13.75;9.93;;;;;;;16.86;100.00;101340.47;5155049;27;20359;-36
2023/07/22 07:21:13;;;;;;;;;;;;;;;16.97;100.00;101340.28;5158899;27;20110;-36
2023/07/22 07:23:39;;;;;;;14.60;9.93;;;;;;;16.84;100.00;101339.91;5159574;27;19947;-36
2023/07/22 07:26:04;;;;;;;;;;;;;;;16.94;100.00;101340.81;5159674;27;20256;-36
2023/07/22 07:28:29;;;;;;;13.65;9.80;;;;;;;16.87;100.00;101337.47;5159206;27;19910;-36
2023/07/22 07:30:55;;;;;;;;;;;;;;;16.99;100.00;101331.84;5159412;27;20019;-36
2023/07/22 07:33:20;;;;;;;12.27;9.70;;;;;;;16.96;100.00;101340.53;5159375;27;19910;-36
2023/07/22 07:35:46;;;;;;;;;;;;;;;17.08;100.00;101333.00;5159716;27;20256;-36
2023/07/22 07:38:11;;;;;;;14.93;9.38;;;;;;;17.02;100.00;101328.56;5158644;27;19903;-37
2023/07/22 07:40:36;;;;;;;;;;;;;;;17.18;100.00;101332.25;5159392;27;20014;-37
2023/07/22 07:43:02;;;;;;;13.38;9.43;;;;;;;17.17;100.00;101336.88;5158569;27;19951;-37
2023/07/22 07:45:27;;;;;;;;;;;;;;;17.31;100.00;101339.16;5159653;27;20015;-37
2023/07/22 07:47:52;;;;;;;15.77;10.23;;;;;;;17.24;100.00;101331.19;5159116;27;19903;-37
2023/07/22 07:50:17;;;;;;;;;;;;;;;17.37;100.00;101335.34;5159229;27;20724;-36
2023/07/22 07:52:43;;;;;;;11.67;8.77;;;;;;;17.36;100.00;101336.44;5159533;27;19903;-36
2023/07/22 07:55:08;;;;;;;;;;;;;;;17.50;100.00;101332.97;5159918;27;20298;-36
2023/07/22 07:57:33;;;;;;;13.83;8.97;;;;;;;17.51;100.00;101333.78;5159192;27;20360;-36
2023/07/22 07:59:58;;;;;;;;;;;;;;;17.71;100.00;101341.28;5159359;27;20288;-36
2023/07/22 08:02:24;;;;;;;14.82;9.38;;;;;;;17.77;100.00;101340.25;5159145;27;19907;-37
2023/07/22 08:04:49;;;;;;;;;;;;;;;17.94;100.00;101342.78;5159236;27;20050;-36
2023/07/22 08:07:16;;;;;;;12.95;9.27;;;;;;;17.91;100.00;101337.81;5158185;27;19906;-36
2023/07/22 08:09:41;;;;;;;13.98;9.48;;;;;;;17.85;99.55;101338.91;5158447;27;20026;-36
2023/07/22 08:12:08;;;;;;;;;;;;;;;18.01;100.00;101340.63;5158866;27;20071;-37
2023/07/22 08:14:33;;;;;;;14.70;9.80;;;;;;;17.76;100.00;101327.66;5158263;27;19911;-36
2023/07/22 08:16:58;;;;;;;13.93;9.35;;;;;;;17.82;100.00;101336.72;5158690;27;20116;-36
2023/07/22 08:19:24;;;;;;;;;;;;;;;17.98;100.00;101338.41;5158025;27;20022;-36
2023/07/22 08:21:49;;;;;;;11.45;8.02;;;;;;;17.92;100.00;101347.69;5158238;27;19914;-36
2023/07/22 08:24:14;;;;;;;9.18;6.85;;;;;;;17.88;99.15;101343.84;5157698;27;20018;-36
2023/07/22 08:26:40;;;;;;;;;;;;;;;18.07;99.98;101347.75;5158848;27;20063;-36
2023/07/22 08:29:05;;;;;;;13.68;7.47;;;;;;;18.07;98.65;101349.66;5157986;27;19946;-36
2023/07/22 08:31:31;;;;;;;11.13;7.00;;;;;;;18.06;98.81;101343.38;5157448;27;20075;-36
2023/07/22 08:33:56;;;;;;;;;;;;;;;18.13;98.46;101345.84;5159231;27;20347;-36
2023/07/22 08:36:22;;;;;;;12.32;6.90;;;;;;;18.12;96.55;101345.03;5158464;27;19967;-36
2023/07/22 08:38:47;;;;;;;11.00;6.90;;;;;;;18.15;99.12;101335.44;5157445;27;20025;-37
2023/07/22 08:41:18;;;;;;;;;;;;;;;18.47;98.95;101341.53;5158078;27;20462;-37
2023/07/22 08:43:46;;;;;;;7.80;6.15;;;;;;;18.64;97.48;101340.47;5157720;27;19925;-37
2023/07/22 08:46:12;;;;;;;8.80;6.45;;;;;;;18.73;92.49;101334.19;5157433;27;20067;-37
2023/07/22 08:48:42;;;;;;;10.40;6.30;;;;;;;18.90;91.29;101342.16;5157688;27;20373;-37
2023/07/22 08:51:16;;;;;;;8.70;6.13;;;;;;;19.09;91.89;101342.41;5157939;27;20026;-37
2023/07/22 08:53:43;;;;;;;8.43;6.60;;;;;;;19.14;91.17;101338.84;5157889;27;20015;-37
2023/07/22 08:56:10;;;;;;;8.68;5.68;;;;;;;19.15;88.19;101340.50;5157526;27;20027;-36
2023/07/22 08:58:36;;;;;;;9.15;5.85;;;;;;;19.18;88.11;101345.41;5157665;27;20038;-36
2023/07/22 09:01:02;;;;;;;7.28;5.05;;;;;;;19.25;88.42;101344.03;5157495;27;20079;-37
2023/07/22 09:03:28;;;;;;;11.20;4.97;;;;;;;19.32;89.57;101335.50;5157316;27;20114;-37
2023/07/22 09:05:54;;;;;;;6.53;4.78;;;;;;;19.38;86.43;101350.06;5158146;27;20106;-37
2023/07/22 09:08:20;;;;;;;9.43;4.82;;;;;;;19.27;85.86;101330.84;5157566;27;20019;-37
2023/07/22 09:10:46;;;;;;;8.05;5.00;;;;;;;19.29;85.37;101341.56;5157790;27;20061;-37
2023/07/22 09:13:13;;;;;;;;;;;;;;;19.47;88.75;101330.00;5157606;27;20470;-37
2023/07/22 09:15:39;;;;;;;6.70;4.28;;;;;;;19.46;89.62;101333.81;5156924;27;19954;-36
2023/07/22 09:18:04;;;;;;;6.93;4.55;;;;;;;19.40;83.61;101339.63;5156981;27;20022;-36
2023/07/22 09:20:30;;;;;;;7.30;3.90;;;;;;;19.38;84.04;101336.34;5157470;27;20127;-36
2023/07/22 09:22:55;;;;;;;8.02;4.10;;;;;;;19.40;84.48;101334.94;5156929;27;20025;-36
2023/07/22 09:25:25;;;;;;;8.20;4.32;;;;;;;19.30;83.84;101321.25;5156507;27;20023;-36
2023/07/22 09:27:53;;;;;;;8.98;4.20;;;;;;;19.34;85.93;101327.03;5157039;27;20050;-36
2023/07/22 09:30:34;;;;;;;6.97;4.45;;;;;;;19.48;85.57;101333.56;5156400;27;20458;-36
2023/07/22 09:33:02;;;;;;;6.78;4.70;;;;;;;19.60;87.42;101336.84;5157180;27;20049;-36
2023/07/22 09:35:45;;;;;;;9.32;4.93;;;;;;;19.61;86.31;101327.50;5157391;27;20444;-36
2023/07/22 09:38:11;;;;;;;9.68;4.72;;;;;;;19.62;84.45;101328.31;5156861;27;20023;-36
2023/07/22 09:40:40;;;;;;;8.18;5.13;;;;;;;19.55;84.50;101323.94;5156807;27;20358;-36
2023/07/22 09:43:06;;;;;;;6.72;4.63;;;;;;;19.56;85.30;101325.56;5155766;27;20015;-36
2023/07/22 09:45:32;;;;;;;7.95;4.90;;;;;;;19.59;87.15;101334.34;5156422;27;20045;-36
2023/07/22 09:47:58;;;;;;;12.55;4.80;;;;;;;19.54;83.28;101326.97;5156768;27;20019;-36
2023/07/22 09:50:25;;;;;;;9.18;5.15;;;;;;;19.51;81.58;101328.31;5156402;27;20060;-36
2023/07/22 09:52:56;;;;;;;6.47;4.32;;;;;;;19.52;82.15;101315.44;5156328;27;20026;-36
2023/07/22 09:55:30;;;;;;;7.15;4.13;;;;;;;19.71;83.47;101318.41;5155949;27;20015;-36
2023/07/22 09:57:58;;;;;;;8.20;4.60;;;;;;;19.81;81.14;101312.88;5155767;27;20050;-36
2023/07/22 10:00:25;;;;;;;6.22;4.13;;;;;;;19.92;82.33;101305.44;5155634;27;20035;-36
2023/07/22 10:02:52;;;;;;;6.25;4.07;;;;;;;19.91;81.08;101310.13;5156148;27;20063;-36
2023/07/22 10:05:19;;;;;;;5.55;3.92;;;;;;;19.91;80.02;101317.50;5155777;27;20506;-36
2023/07/22 10:07:51;;;;;;;5.35;4.28;;;;;;;19.83;81.44;101310.69;5156397;27;20021;-36
2023/07/22 10:10:23;;;;;;;5.28;3.92;;;;;;;19.72;81.20;101314.59;5156039;27;20022;-36
2023/07/22 10:12:48;;;;;;;7.05;3.80;;;;;;;19.66;82.06;101308.28;5156562;27;20018;-36
2023/07/22 10:15:17;;;;;;;7.40;3.72;;;;;;;19.63;82.40;101310.78;5156249;27;20447;-36
2023/07/22 10:17:43;;;;;;;5.75;3.40;;;;;;;19.62;82.08;101323.69;5156467;27;20059;-36
2023/07/22 10:20:14;;;;;;;6.30;3.20;;;;;;;19.74;82.94;101321.44;5155496;27;20047;-36
2023/07/22 10:22:41;;;;;;;6.10;3.50;;;;;;;19.97;82.80;101319.13;5155809;27;20459;-36
2023/07/22 10:25:09;;;;;;;5.78;2.70;;;;;;;20.11;81.10;101322.09;5155471;27;20023;-36
2023/07/22 10:27:35;;;;;;;5.78;2.70;;;;;;;20.30;79.10;101318.41;5156622;27;20019;-36
2023/07/22 10:30:02;;;;;;;3.50;2.38;;;;;;;20.42;77.66;101314.47;5155408;27;20523;-36
2023/07/22 10:32:57;;;;;;;4.97;2.88;;;;;;;20.65;78.79;101315.72;5155706;27;20022;-36
2023/07/22 10:35:34;;;;;;;4.07;2.42;;;;;;;20.63;76.49;101313.22;5142300;27;20041;-36
2023/07/22 10:38:11;;;;;;;5.45;2.55;;;;;;;20.58;77.33;101316.00;5156156;27;20394;-37
2023/07/22 10:40:55;;;;;;;5.78;2.85;;;;;;;20.58;78.37;101314.09;5155531;27;20019;-36
2023/07/22 10:43:33;;;;;;;6.00;2.90;;;;;;;20.49;76.99;101309.47;5156107;27;20027;-36
2023/07/22 10:46:05;;;;;;;4.80;2.30;;;;;;;20.42;79.58;101306.22;5155751;27;20411;-36
2023/07/22 10:48:35;;;;;;;7.95;2.70;;;;;;;20.41;76.62;101299.09;5155780;27;20034;-36
2023/07/22 10:51:14;;;;;;;5.40;2.42;;;;;;;20.58;76.04;101307.78;5155469;27;20069;-37
2023/07/22 10:53:43;;;;;;;4.18;2.10;;;;;;;20.59;74.77;101298.41;5155408;27;20019;-37
2023/07/22 10:56:13;;;;;;;4.05;2.05;;;;;;;20.67;76.89;101306.06;5155648;27;20030;-37
2023/07/22 10:58:44;;;;;;;3.63;2.10;;;;;;;20.67;75.48;101307.97;5155186;27;20115;-36
2023/07/22 11:01:35;;;;;;;4.68;2.20;;;;;;;20.81;77.41;101304.28;5155658;27;20079;-36
2023/07/22 11:04:31;;;;;;;3.75;1.80;;;;;;;20.85;73.84;101312.78;5156088;27;20019;-36
2023/07/22 11:07:04;;;;;;;4.15;2.00;;;;;;;21.00;74.31;101298.06;5155849;27;20018;-36
2023/07/22 11:09:30;;;;;;;3.75;1.70;;;;;;;21.11;71.69;101293.28;5155487;27;20031;-36
2023/07/22 11:11:58;;;;;;;10.57;2.42;;;;;;;21.06;72.38;101292.22;5155384;27;20034;-37
2023/07/22 11:14:25;;;;;;;2.88;1.50;;;;;;;20.91;71.18;101299.81;5155694;27;20036;-36
2023/07/22 11:16:51;;;;;;;2.45;1.45;;;;;;;20.97;69.25;101299.47;5155720;27;20030;-36
2023/07/22 11:19:18;;;;;;;3.65;2.03;;;;;;;21.11;69.76;101285.03;5154991;27;20033;-36
2023/07/22 11:21:45;;;;;;;2.78;1.42;;;;;;;21.30;71.92;101289.53;5155656;27;20022;-36
2023/07/22 11:24:11;;;;;;;3.15;1.60;;;;;;;21.22;69.84;101278.31;5155097;27;20027;-37
2023/07/22 11:26:37;;;;;;;3.25;1.13;;;;;;;21.24;66.59;101282.41;5155380;27;20343;-36
2023/07/22 11:29:04;;;;;;;3.42;1.30;;;;;;;21.22;67.64;101278.31;5154962;27;20027;-37